TOP weather

Philip Billard Municipal Airport
Topeka, Kansas, United States

Public forecast

Using degrees Fahrenheit for public forecast. Weather courtesy of forecast.io.

Current aviation weather report (METAR) for Philip Billard Municipal Airport

Retrieved 2020/02/22 00:53 UTC (31 minutes ago):

KTOP 220053Z 18007KT 10SM CLR 04/M06 A3036 RMK AO2 SLP292 T00391061

Aviation forecast (TAF) for Philip Billard Municipal Airport

Retrieved 2020-02-22 00:34 UTC (50 minutes ago):

TAF KTOP 212332Z 2200/2224 19011KT P6SM SKC FM220600 18006KT P6SM SKC WS015/23035KT FM221200 20006KT P6SM FEW250 FM221800 20011G19KT P6SM BKN250